createdAt,value
2018-01-30T00:00:19.687Z,9.98
2018-01-30T00:02:47.950Z,9.40
2018-01-30T00:05:16.109Z,8.52
2018-01-30T00:07:44.249Z,8.80
2018-01-30T00:10:12.536Z,8.85
2018-01-30T00:12:40.642Z,9.50
2018-01-30T00:15:08.921Z,10.02
2018-01-30T00:17:37.254Z,10.50
2018-01-30T00:20:05.695Z,9.80
2018-01-30T00:22:34.037Z,8.80
2018-01-30T00:25:02.225Z,10.45
2018-01-30T00:27:30.452Z,10.02
2018-01-30T00:29:58.810Z,10.68
2018-01-30T00:32:27.115Z,10.13
2018-01-30T00:34:55.257Z,9.40
2018-01-30T00:37:24.469Z,9.75
2018-01-30T00:39:52.936Z,8.85
2018-01-30T00:42:21.005Z,10.75
2018-01-30T00:44:49.198Z,9.38
2018-01-30T00:47:17.399Z,9.07
2018-01-30T00:49:45.717Z,9.10
2018-01-30T00:52:13.897Z,9.48
2018-01-30T00:54:42.122Z,9.63
2018-01-30T00:57:10.181Z,10.52
2018-01-30T00:59:38.373Z,8.88
2018-01-30T01:02:06.464Z,9.15
2018-01-30T01:04:34.759Z,8.90
2018-01-30T01:07:03.074Z,9.35
2018-01-30T01:09:31.217Z,10.30
2018-01-30T01:11:59.538Z,9.20
2018-01-30T01:14:27.792Z,9.40
2018-01-30T01:16:56.061Z,8.98
2018-01-30T01:19:24.236Z,8.23
2018-01-30T01:21:52.329Z,8.77
2018-01-30T01:24:21.314Z,7.50
2018-01-30T01:26:49.439Z,6.40
2018-01-30T01:29:17.729Z,6.75
2018-01-30T01:31:46.834Z,8.00
2018-01-30T01:34:15.087Z,7.45
2018-01-30T01:36:43.291Z,9.02
2018-01-30T01:39:11.479Z,8.20
2018-01-30T01:41:39.689Z,7.95
2018-01-30T01:44:08.013Z,7.80
2018-01-30T01:46:36.613Z,8.85
2018-01-30T01:49:04.829Z,9.10
2018-01-30T01:51:33.191Z,9.00
2018-01-30T01:54:02.232Z,9.52
2018-01-30T01:56:30.528Z,9.18
2018-01-30T01:58:59.015Z,10.70
2018-01-30T02:01:27.255Z,8.50
2018-01-30T02:03:55.313Z,9.10
2018-01-30T02:06:23.334Z,8.50
2018-01-30T02:08:51.415Z,9.00
2018-01-30T02:11:21.123Z,10.07
2018-01-30T02:13:49.096Z,8.75
2018-01-30T02:16:17.364Z,7.87
2018-01-30T02:18:45.440Z,8.05
2018-01-30T02:21:13.594Z,8.13
2018-01-30T02:23:41.567Z,7.97
2018-01-30T02:26:09.851Z,9.23
2018-01-30T02:28:38.166Z,9.52
2018-01-30T02:31:06.382Z,10.20
2018-01-30T02:33:34.578Z,9.15
2018-01-30T02:36:02.801Z,8.10
2018-01-30T02:38:30.916Z,7.70
2018-01-30T02:40:59.185Z,8.32
2018-01-30T02:43:28.018Z,7.15
2018-01-30T02:45:57.415Z,8.90
2018-01-30T02:48:25.671Z,6.78
2018-01-30T02:50:54.272Z,8.85
2018-01-30T02:53:22.370Z,9.02
2018-01-30T02:55:50.603Z,10.95
2018-01-30T02:58:18.864Z,10.70
2018-01-30T03:00:47.196Z,10.25
2018-01-30T03:03:15.367Z,10.32
2018-01-30T03:05:43.557Z,8.55
2018-01-30T03:10:44.945Z,7.95
2018-01-30T03:13:13.340Z,8.73
2018-01-30T03:15:41.518Z,8.18
2018-01-30T03:18:10.757Z,7.93
2018-01-30T03:20:39.317Z,8.90
2018-01-30T03:23:07.414Z,9.65
2018-01-30T03:25:35.657Z,8.52
2018-01-30T03:28:04.044Z,8.70
2018-01-30T03:30:32.277Z,8.07
2018-01-30T03:33:00.429Z,9.23
2018-01-30T03:35:28.635Z,8.15
2018-01-30T03:37:56.837Z,8.63
2018-01-30T03:40:25.021Z,9.63
2018-01-30T03:42:53.005Z,8.63
2018-01-30T03:45:21.295Z,10.07
2018-01-30T03:47:49.606Z,8.23
2018-01-30T03:50:18.118Z,9.15
2018-01-30T03:52:46.504Z,7.57
2018-01-30T03:55:14.911Z,7.80
2018-01-30T03:57:43.308Z,8.30
2018-01-30T04:00:12.127Z,8.38
2018-01-30T04:02:40.608Z,7.50
2018-01-30T04:05:08.941Z,8.77
2018-01-30T04:07:37.422Z,6.87
2018-01-30T04:10:05.898Z,7.57
2018-01-30T04:12:34.313Z,7.30
2018-01-30T04:15:02.613Z,6.85
2018-01-30T04:17:30.905Z,6.68
2018-01-30T04:20:00.882Z,6.60
2018-01-30T04:22:29.127Z,7.45
2018-01-30T04:24:57.312Z,7.05
2018-01-30T04:27:25.513Z,7.68
2018-01-30T04:29:53.505Z,7.65
2018-01-30T04:32:21.699Z,7.55
2018-01-30T04:34:50.218Z,8.43
2018-01-30T04:37:18.694Z,6.95
2018-01-30T04:39:46.898Z,7.70
2018-01-30T04:42:15.164Z,7.28
2018-01-30T04:44:43.430Z,8.77
2018-01-30T04:47:11.807Z,7.87
2018-01-30T04:49:40.023Z,7.30
2018-01-30T04:52:08.184Z,7.50
2018-01-30T04:54:36.321Z,7.80
2018-01-30T04:57:04.674Z,7.85
2018-01-30T04:59:32.700Z,6.43
2018-01-30T05:02:01.075Z,7.15
2018-01-30T05:04:29.179Z,6.87
2018-01-30T05:06:57.499Z,6.30
2018-01-30T05:09:25.722Z,7.80
2018-01-30T05:11:54.142Z,9.05
2018-01-30T05:14:22.544Z,9.80
2018-01-30T05:16:50.836Z,11.85
2018-01-30T05:19:18.984Z,12.95
2018-01-30T05:21:47.715Z,13.80
2018-01-30T05:24:15.934Z,12.25
2018-01-30T05:26:44.235Z,13.20
2018-01-30T05:29:12.632Z,15.00
2018-01-30T05:31:40.929Z,14.60
2018-01-30T05:34:09.320Z,14.82
2018-01-30T05:36:37.479Z,14.60
2018-01-30T05:39:05.515Z,16.08
2018-01-30T05:41:33.836Z,15.27
2018-01-30T05:44:01.993Z,12.88
2018-01-30T05:46:30.194Z,8.77
2018-01-30T05:48:58.276Z,7.90
2018-01-30T05:51:27.490Z,7.75
2018-01-30T05:53:55.695Z,6.30
2018-01-30T05:56:23.973Z,6.97
2018-01-30T05:58:52.020Z,7.62
2018-01-30T06:01:20.763Z,7.87
2018-01-30T06:03:49.195Z,7.90
2018-01-30T06:06:17.499Z,8.75
2018-01-30T06:08:45.988Z,7.72
2018-01-30T06:11:14.188Z,8.43
2018-01-30T06:13:42.475Z,8.10
2018-01-30T06:16:10.879Z,9.25
2018-01-30T06:18:39.036Z,7.05
2018-01-30T06:21:07.276Z,8.05
2018-01-30T06:23:35.274Z,8.13
2018-01-30T06:26:03.496Z,7.80
2018-01-30T06:28:31.779Z,8.88
2018-01-30T06:31:00.155Z,7.62
2018-01-30T06:33:28.339Z,8.38
2018-01-30T06:35:56.738Z,8.38
2018-01-30T06:38:24.934Z,8.32
2018-01-30T06:40:52.962Z,8.55
2018-01-30T06:43:21.130Z,8.20
2018-01-30T06:45:49.486Z,6.60
2018-01-30T06:48:18.618Z,7.57
2018-01-30T06:50:47.038Z,7.32
2018-01-30T06:53:15.733Z,7.72
2018-01-30T06:55:44.964Z,7.72
2018-01-30T06:58:13.328Z,8.10
2018-01-30T07:00:42.503Z,7.40
2018-01-30T07:03:11.009Z,7.95
2018-01-30T07:05:39.265Z,6.80
2018-01-30T07:08:07.562Z,7.35
2018-01-30T07:10:35.746Z,8.13
2018-01-30T07:13:04.046Z,7.65
2018-01-30T07:15:32.336Z,8.52
2018-01-30T07:18:00.578Z,8.80
2018-01-30T07:20:28.933Z,8.25
2018-01-30T07:22:57.373Z,9.05
2018-01-30T07:25:25.834Z,9.05
2018-01-30T07:27:53.937Z,7.62
2018-01-30T07:30:22.168Z,7.68
2018-01-30T07:32:50.377Z,8.63
2018-01-30T07:35:18.480Z,8.23
2018-01-30T07:37:46.914Z,8.77
2018-01-30T07:40:15.110Z,7.55
2018-01-30T07:42:43.513Z,8.23
2018-01-30T07:45:11.799Z,7.93
2018-01-30T07:47:39.941Z,9.00
2018-01-30T07:50:08.089Z,9.30
2018-01-30T07:52:36.293Z,12.35
2018-01-30T07:55:04.377Z,12.05
2018-01-30T07:57:32.577Z,12.52
2018-01-30T08:00:00.660Z,11.75
2018-01-30T08:02:28.856Z,11.48
2018-01-30T08:04:56.960Z,9.82
2018-01-30T08:07:25.257Z,10.68
2018-01-30T08:09:53.432Z,12.05
2018-01-30T08:12:21.831Z,13.73
2018-01-30T08:14:50.174Z,13.70
2018-01-30T08:17:18.280Z,12.82
2018-01-30T08:19:46.573Z,11.43
2018-01-30T08:22:14.968Z,11.07
2018-01-30T08:24:43.319Z,9.52
2018-01-30T08:27:11.626Z,11.05
2018-01-30T08:29:39.822Z,10.43
2018-01-30T08:32:08.210Z,9.77
2018-01-30T08:34:36.340Z,10.40
2018-01-30T08:37:04.504Z,10.75
2018-01-30T08:39:32.595Z,12.45
2018-01-30T08:42:00.792Z,12.43
2018-01-30T08:44:28.989Z,11.73
2018-01-30T08:46:57.274Z,11.12
2018-01-30T08:49:25.676Z,11.77
2018-01-30T08:51:54.074Z,11.10
2018-01-30T08:54:22.377Z,9.85
2018-01-30T08:56:50.512Z,12.18
2018-01-30T08:59:18.584Z,9.52
2018-01-30T09:01:46.632Z,9.90
2018-01-30T09:04:14.695Z,11.07
2018-01-30T09:06:42.745Z,9.30
2018-01-30T09:09:10.846Z,10.15
2018-01-30T09:11:38.856Z,9.25
2018-01-30T09:14:07.055Z,8.93
2018-01-30T09:16:35.008Z,9.20
2018-01-30T09:19:03.138Z,8.30
2018-01-30T09:21:31.240Z,8.05
2018-01-30T09:23:59.484Z,7.60
2018-01-30T09:26:27.688Z,6.85
2018-01-30T09:28:55.830Z,7.32
2018-01-30T09:31:23.956Z,7.55
2018-01-30T09:33:52.240Z,7.93
2018-01-30T09:36:20.580Z,7.78
2018-01-30T09:38:48.817Z,8.60
2018-01-30T09:41:16.805Z,8.43
2018-01-30T09:43:44.928Z,8.13
2018-01-30T09:46:12.914Z,8.75
2018-01-30T09:48:41.016Z,8.20
2018-01-30T09:51:09.066Z,9.02
2018-01-30T09:53:37.295Z,8.15
2018-01-30T09:56:05.400Z,8.18
2018-01-30T09:58:33.477Z,7.35
2018-01-30T10:01:01.439Z,9.10
2018-01-30T10:03:29.673Z,7.28
2018-01-30T10:05:57.758Z,7.12
2018-01-30T10:08:25.958Z,7.68
2018-01-30T10:10:53.918Z,7.50
2018-01-30T10:13:21.998Z,8.65
2018-01-30T10:15:49.986Z,7.68
2018-01-30T10:18:18.078Z,8.30
2018-01-30T10:20:46.006Z,8.65
2018-01-30T10:23:14.116Z,8.48
2018-01-30T10:25:42.059Z,8.40
2018-01-30T10:28:10.176Z,9.25
2018-01-30T10:30:38.216Z,9.25
2018-01-30T10:33:06.386Z,9.57
2018-01-30T10:35:34.461Z,8.93
2018-01-30T10:38:02.615Z,10.55
2018-01-30T10:40:30.740Z,10.30
2018-01-30T10:42:58.936Z,10.90
2018-01-30T10:45:27.095Z,10.68
2018-01-30T10:47:55.244Z,11.00
2018-01-30T10:50:23.428Z,11.55
2018-01-30T10:52:51.522Z,10.38
2018-01-30T10:55:19.545Z,10.55
2018-01-30T10:57:47.639Z,11.18
2018-01-30T11:00:15.622Z,11.07
2018-01-30T11:02:43.614Z,11.70
2018-01-30T11:05:11.581Z,12.13
2018-01-30T11:07:39.534Z,13.30
2018-01-30T11:10:07.579Z,13.20
2018-01-30T11:12:35.634Z,13.55
2018-01-30T11:15:03.815Z,14.23
2018-01-30T11:17:31.973Z,13.48
2018-01-30T11:20:00.188Z,14.38
2018-01-30T11:22:28.377Z,14.10
2018-01-30T11:24:56.440Z,12.77
2018-01-30T11:27:24.422Z,12.75
2018-01-30T11:29:52.556Z,17.87
2018-01-30T11:32:20.526Z,13.05
2018-01-30T11:34:48.678Z,17.98
2018-01-30T11:37:16.673Z,15.43
2018-01-30T11:39:44.732Z,16.62
2018-01-30T11:42:12.684Z,17.52
2018-01-30T11:44:40.929Z,17.80
2018-01-30T11:47:09.004Z,17.92
2018-01-30T11:49:37.104Z,14.80
2018-01-30T11:52:05.104Z,13.43
2018-01-30T11:54:33.177Z,12.67
2018-01-30T11:57:01.115Z,12.00
2018-01-30T11:59:29.230Z,10.43
2018-01-30T12:01:57.199Z,10.73
2018-01-30T12:04:25.258Z,11.00
2018-01-30T12:06:53.339Z,11.80
2018-01-30T12:09:21.655Z,12.60
2018-01-30T12:11:49.807Z,11.00
2018-01-30T12:14:18.057Z,10.50
2018-01-30T12:16:46.041Z,9.97
2018-01-30T12:19:14.070Z,10.52
2018-01-30T12:21:42.120Z,11.40
2018-01-30T12:24:10.273Z,11.57
2018-01-30T12:26:38.447Z,10.75
2018-01-30T12:29:06.538Z,10.63
2018-01-30T12:31:34.889Z,10.20
2018-01-30T12:34:03.179Z,10.40
2018-01-30T12:36:31.370Z,10.77
2018-01-30T12:38:59.675Z,10.60
2018-01-30T12:41:28.063Z,8.90
2018-01-30T12:43:56.166Z,10.88
2018-01-30T12:46:24.355Z,9.23
2018-01-30T12:48:52.569Z,9.63
2018-01-30T12:51:20.521Z,8.32
2018-01-30T12:53:48.638Z,9.05
2018-01-30T12:56:16.842Z,9.98
2018-01-30T12:58:44.919Z,9.35
2018-01-30T13:01:13.020Z,8.70
2018-01-30T13:03:41.104Z,9.07
2018-01-30T13:06:09.400Z,9.57
2018-01-30T13:08:37.708Z,9.40
2018-01-30T13:11:05.900Z,9.35
2018-01-30T13:13:34.095Z,9.48
2018-01-30T13:16:02.147Z,9.73
2018-01-30T13:18:30.181Z,8.73
2018-01-30T13:20:58.221Z,8.82
2018-01-30T13:23:26.229Z,9.55
2018-01-30T13:25:54.219Z,8.73
2018-01-30T13:28:22.238Z,8.40
2018-01-30T13:30:50.231Z,9.30
2018-01-30T13:33:18.213Z,7.30
2018-01-30T13:35:46.143Z,6.85
2018-01-30T13:38:14.149Z,7.35
2018-01-30T13:40:42.108Z,8.02
2018-01-30T13:43:10.215Z,8.73
2018-01-30T13:45:38.332Z,7.57
2018-01-30T13:48:06.331Z,7.53
2018-01-30T13:50:34.383Z,5.82
2018-01-30T13:53:02.528Z,5.12
2018-01-30T13:55:30.480Z,6.20
2018-01-30T13:57:58.418Z,5.03
2018-01-30T14:00:26.407Z,5.25
2018-01-30T14:02:54.394Z,5.50
2018-01-30T14:05:22.395Z,4.90
2018-01-30T14:07:50.379Z,4.60
2018-01-30T14:10:18.376Z,6.15
2018-01-30T14:12:46.301Z,5.72
2018-01-30T14:15:14.270Z,6.20
2018-01-30T14:17:42.445Z,5.25
2018-01-30T14:20:10.418Z,5.12
2018-01-30T14:22:38.371Z,5.30
2018-01-30T14:25:06.559Z,5.82
2018-01-30T14:27:34.758Z,5.35
2018-01-30T14:30:02.775Z,5.40
2018-01-30T14:32:30.766Z,5.87
2018-01-30T14:34:58.776Z,5.55
2018-01-30T14:37:26.753Z,5.30
2018-01-30T14:39:54.739Z,5.40
2018-01-30T14:42:22.778Z,4.97
2018-01-30T14:44:50.728Z,5.10
2018-01-30T14:47:18.752Z,5.25
2018-01-30T14:49:46.751Z,4.10
2018-01-30T14:52:14.740Z,4.15
2018-01-30T14:54:42.912Z,4.10
2018-01-30T14:57:10.908Z,5.40
2018-01-30T14:59:38.988Z,4.68
2018-01-30T15:02:07.140Z,4.78
2018-01-30T15:04:35.309Z,5.05
2018-01-30T15:07:03.526Z,4.82
2018-01-30T15:09:31.478Z,5.35
2018-01-30T15:11:59.499Z,5.35
2018-01-30T15:14:27.462Z,5.82
2018-01-30T15:16:55.470Z,6.43
2018-01-30T15:19:23.426Z,5.50
2018-01-30T15:21:51.463Z,6.30
2018-01-30T15:24:19.398Z,5.80
2018-01-30T15:26:47.424Z,5.20
2018-01-30T15:29:15.536Z,5.43
2018-01-30T15:31:43.700Z,6.25
2018-01-30T15:34:11.814Z,5.57
2018-01-30T15:36:39.938Z,5.18
2018-01-30T15:39:08.027Z,4.80
2018-01-30T15:41:36.174Z,5.12
2018-01-30T15:44:04.193Z,4.32
2018-01-30T15:46:32.256Z,4.25
2018-01-30T15:49:00.301Z,4.57
2018-01-30T15:51:28.347Z,4.40
2018-01-30T15:53:56.341Z,4.82
2018-01-30T15:56:24.336Z,5.22
2018-01-30T15:58:52.341Z,4.45
2018-01-30T16:01:20.339Z,6.22
2018-01-30T16:03:48.316Z,6.20
2018-01-30T16:06:16.491Z,6.75
2018-01-30T16:08:44.626Z,7.43
2018-01-30T16:11:12.770Z,10.45
2018-01-30T16:13:40.881Z,11.40
2018-01-30T16:16:09.081Z,12.60
2018-01-30T16:18:37.046Z,10.52
2018-01-30T16:21:05.115Z,11.52
2018-01-30T16:23:33.092Z,11.05
2018-01-30T16:26:01.130Z,10.55
2018-01-30T16:28:29.185Z,10.80
2018-01-30T16:30:57.312Z,10.35
2018-01-30T16:33:25.338Z,9.85
2018-01-30T16:35:53.462Z,9.25
2018-01-30T16:38:21.439Z,8.90
2018-01-30T16:40:49.598Z,8.55
2018-01-30T16:43:17.541Z,7.90
2018-01-30T16:45:45.686Z,7.35
2018-01-30T16:48:13.667Z,7.87
2018-01-30T16:50:41.829Z,9.40
2018-01-30T16:53:09.905Z,7.72
2018-01-30T16:55:37.982Z,7.60
2018-01-30T16:58:06.046Z,7.30
2018-01-30T17:00:34.195Z,8.30
2018-01-30T17:03:02.216Z,8.20
2018-01-30T17:05:30.237Z,8.98
2018-01-30T17:07:58.437Z,8.57
2018-01-30T17:10:26.536Z,8.07
2018-01-30T17:12:54.716Z,8.50
2018-01-30T17:15:22.814Z,9.20
2018-01-30T17:17:51.036Z,9.65
2018-01-30T17:20:19.320Z,8.73
2018-01-30T17:22:47.498Z,10.63
2018-01-30T17:25:15.618Z,9.50
2018-01-30T17:27:43.800Z,9.45
2018-01-30T17:30:11.878Z,9.77
2018-01-30T17:32:40.179Z,10.57
2018-01-30T17:35:08.478Z,10.18
2018-01-30T17:37:36.778Z,11.80
2018-01-30T17:40:04.957Z,11.25
2018-01-30T17:42:33.116Z,11.85
2018-01-30T17:45:01.365Z,11.80
2018-01-30T17:47:29.651Z,11.25
2018-01-30T17:49:57.762Z,14.68
2018-01-30T17:52:25.938Z,12.10
2018-01-30T17:54:54.039Z,12.77
2018-01-30T17:57:22.219Z,12.68
2018-01-30T17:59:50.419Z,12.65
2018-01-30T18:02:18.627Z,11.95
2018-01-30T18:04:46.800Z,13.15
2018-01-30T18:07:15.100Z,13.52
2018-01-30T18:09:43.200Z,12.68
2018-01-30T18:12:11.479Z,13.73
2018-01-30T18:14:39.960Z,12.27
2018-01-30T18:17:08.279Z,12.98
2018-01-30T18:19:36.320Z,12.77
2018-01-30T18:22:04.761Z,12.68
2018-01-30T18:24:32.850Z,13.62
2018-01-30T18:27:01.049Z,12.57
2018-01-30T18:29:29.153Z,13.18
2018-01-30T18:31:57.354Z,12.48
2018-01-30T18:34:25.325Z,12.77
2018-01-30T18:36:53.515Z,12.95
2018-01-30T18:39:21.621Z,16.00
2018-01-30T18:41:49.873Z,14.18
2018-01-30T18:44:18.012Z,15.27
2018-01-30T18:46:46.213Z,16.87
2018-01-30T18:49:15.112Z,17.50
2018-01-30T18:51:43.519Z,15.07
2018-01-30T18:54:11.821Z,14.32
2018-01-30T18:56:40.122Z,15.93
2018-01-30T18:59:08.199Z,14.23
2018-01-30T19:01:36.510Z,13.95
2018-01-30T19:04:04.599Z,13.90
2018-01-30T19:06:32.799Z,15.35
2018-01-30T19:09:00.899Z,15.75
2018-01-30T19:11:29.186Z,16.27
2018-01-30T19:13:57.359Z,16.40
2018-01-30T19:16:25.580Z,16.30
2018-01-30T19:18:53.759Z,16.58
2018-01-30T19:21:22.780Z,18.15
2018-01-30T19:23:50.878Z,16.15
2018-01-30T19:26:19.159Z,16.35
2018-01-30T19:28:47.459Z,16.67
2018-01-30T19:31:15.658Z,16.92
2018-01-30T19:33:43.959Z,17.80
2018-01-30T19:36:13.086Z,17.17
2018-01-30T19:38:41.259Z,17.05
2018-01-30T19:41:09.358Z,18.35
2018-01-30T19:43:37.676Z,19.33
2018-01-30T19:46:05.739Z,17.87
2018-01-30T19:48:33.944Z,17.33
2018-01-30T19:51:01.924Z,16.50
2018-01-30T19:53:30.130Z,18.87
2018-01-30T19:55:58.309Z,19.08
2018-01-30T19:58:26.510Z,18.87
2018-01-30T20:00:54.809Z,17.85
2018-01-30T20:03:23.090Z,17.90
2018-01-30T20:05:51.290Z,18.73
2018-01-30T20:08:19.408Z,15.93
2018-01-30T20:10:47.354Z,15.55
2018-01-30T20:13:15.473Z,16.95
2018-01-30T20:15:43.670Z,16.10
2018-01-30T20:18:11.872Z,14.45
2018-01-30T20:20:40.052Z,14.48
2018-01-30T20:23:08.251Z,15.52
2018-01-30T20:25:36.452Z,15.50
2018-01-30T20:28:04.532Z,16.75
2018-01-30T20:30:32.467Z,17.00
2018-01-30T20:33:00.716Z,16.30
2018-01-30T20:35:28.917Z,17.23
2018-01-30T20:37:57.120Z,17.73
2018-01-30T20:40:25.315Z,17.12
2018-01-30T20:42:53.495Z,16.33
2018-01-30T20:45:21.595Z,17.95
2018-01-30T20:47:49.684Z,17.25
2018-01-30T20:50:17.883Z,18.10
2018-01-30T20:52:46.063Z,15.93
2018-01-30T20:55:14.165Z,15.93
2018-01-30T20:57:42.263Z,15.63
2018-01-30T21:00:10.443Z,16.05
2018-01-30T21:02:38.644Z,15.80
2018-01-30T21:05:06.743Z,16.85
2018-01-30T21:07:34.923Z,17.62
2018-01-30T21:10:03.124Z,16.40
2018-01-30T21:12:31.223Z,15.60
2018-01-30T21:14:59.426Z,14.75
2018-01-30T21:17:27.603Z,15.75
2018-01-30T21:19:55.799Z,15.43
2018-01-30T21:22:23.999Z,14.75
2018-01-30T21:24:52.139Z,14.48
2018-01-30T21:27:20.382Z,16.23
2018-01-30T21:29:48.477Z,15.88
2018-01-30T21:32:16.647Z,13.98
2018-01-30T21:34:44.952Z,14.80
2018-01-30T21:37:13.153Z,13.02
2018-01-30T21:39:41.356Z,12.15
2018-01-30T21:42:09.551Z,12.27
2018-01-30T21:44:37.748Z,12.60
2018-01-30T21:47:06.049Z,11.93
2018-01-30T21:49:34.226Z,10.80
2018-01-30T21:52:02.307Z,12.25
2018-01-30T21:54:30.735Z,12.05
2018-01-30T21:56:58.964Z,10.82
2018-01-30T21:59:27.316Z,11.12
2018-01-30T22:01:55.516Z,12.20
2018-01-30T22:04:23.907Z,12.18
2018-01-30T22:06:52.122Z,12.50
2018-01-30T22:09:20.400Z,11.43
2018-01-30T22:11:48.608Z,10.65
2018-01-30T22:14:16.769Z,11.52
2018-01-30T22:16:45.104Z,12.85
2018-01-30T22:19:13.279Z,12.68
2018-01-30T22:21:41.382Z,11.75
2018-01-30T22:24:10.523Z,11.52
2018-01-30T22:26:38.695Z,10.52
2018-01-30T22:29:06.829Z,12.13
2018-01-30T22:31:35.081Z,11.82
2018-01-30T22:34:03.259Z,11.63
2018-01-30T22:36:31.573Z,11.35
2018-01-30T22:38:59.563Z,11.30
2018-01-30T22:41:27.788Z,10.30
2018-01-30T22:43:55.952Z,10.77
2018-01-30T22:46:24.356Z,10.77
